KOJ weather

Kagoshima Airport
Kagoshima, Kagoshima Prefecture, Japan

Public forecast

Using degrees Celsius for public forecast. Weather courtesy of forecast.io.

METAR (pilot weather report)

Retrieved 2019/07/21 01:44 UTC (0 seconds ago):

RJFK 210144Z 04004KT 010V090 2500 R34/0550VP2000U +SHRA BR BCFG FEW003 BKN007 BKN015 FEW025CB 24/24 Q1012 RMK 1ST003 5ST007 7CU015 1CB025 A2989 CB 5KM NE AND 20KM SW-W MOV NE FG ALL QUAD

TAF (pilot weather forecast)

Forecast is more than 12 hours old.

Retrieved 2019/07/20 00:00 UTC (1 day ago):

TAF RJFK 202312Z 2100/2206 18010KT 8000 -SHRA FEW005 SCT010 BKN015 TEMPO 2100/2104 1500 +TSRA BR FEW003 BKN005 BKN010 FEW020CB TEMPO 2104/2107 3000 SHRA BR FEW003 BKN005 BKN010 TEMPO 2107/2115 4000 -SHRA BR FEW003 BKN008 BKN010 TEMPO 2115/2200 3000 SHRA BR FEW003 BKN005 BKN010 TEMPO 2200/2203 4000 -SHRA BR FEW003 BKN008 BKN010